Terminal Aerodrome Forecast
Issued by NWS Shreveport, LA

Home | Current Version | Previous Version | Text Only | Print | Product List | Glossary On
Versions: 1 2 3 4 5 6 7 8 9 10 11 12 13 14 15 16 17
000
FTUS44 KSHV 271500 AAB
TAFTXK
TAF AMD
KTXK 271545Z 2716/2812 33007KT 1 1/2SM -RA BR OVC002
      TEMPO 2716/2719 2SM -RA BR BKN004 OVC007
     FM271900 34010KT 6SM BR OVC007
     FM280200 34012KT 3SM -RA BR OVC014
     FM280900 34009KT P6SM OVC007=

USA.gov is the U.S. government's official web portal to all federal, state and local government web resources and services.